sensor_id;sensor_type;location;lat;lon;timestamp;P1;durP1;ratioP1;P2;durP2;ratioP2
25079;SDS011;13071;48.868;9.996;2023-03-08T00:00:39;7.72;;;3.55;;
25079;SDS011;13071;48.868;9.996;2023-03-08T00:03:06;10.38;;;3.95;;
25079;SDS011;13071;48.868;9.996;2023-03-08T00:05:32;9.30;;;3.95;;
25079;SDS011;13071;48.868;9.996;2023-03-08T00:07:59;12.27;;;4.22;;
25079;SDS011;13071;48.868;9.996;2023-03-08T00:10:25;10.55;;;3.92;;
25079;SDS011;13071;48.868;9.996;2023-03-08T00:12:52;9.02;;;3.83;;
25079;SDS011;13071;48.868;9.996;2023-03-08T00:15:19;10.20;;;4.10;;
25079;SDS011;13071;48.868;9.996;2023-03-08T00:17:46;10.70;;;3.65;;
25079;SDS011;13071;48.868;9.996;2023-03-08T00:20:13;10.88;;;3.65;;
25079;SDS011;13071;48.868;9.996;2023-03-08T00:22:40;11.52;;;3.78;;
25079;SDS011;13071;48.868;9.996;2023-03-08T00:25:08;9.73;;;3.95;;
25079;SDS011;13071;48.868;9.996;2023-03-08T00:27:36;9.52;;;4.47;;
25079;SDS011;13071;48.868;9.996;2023-03-08T00:30:03;12.13;;;4.50;;
25079;SDS011;13071;48.868;9.996;2023-03-08T00:32:31;9.75;;;3.22;;
25079;SDS011;13071;48.868;9.996;2023-03-08T00:34:59;8.38;;;3.72;;
25079;SDS011;13071;48.868;9.996;2023-03-08T00:37:25;11.18;;;4.10;;
25079;SDS011;13071;48.868;9.996;2023-03-08T00:39:52;9.43;;;3.67;;
25079;SDS011;13071;48.868;9.996;2023-03-08T00:42:19;8.48;;;3.42;;
25079;SDS011;13071;48.868;9.996;2023-03-08T00:44:47;11.82;;;4.05;;
25079;SDS011;13071;48.868;9.996;2023-03-08T00:47:14;12.65;;;3.80;;
25079;SDS011;13071;48.868;9.996;2023-03-08T00:49:41;13.38;;;4.72;;
25079;SDS011;13071;48.868;9.996;2023-03-08T00:52:09;11.32;;;4.35;;
25079;SDS011;13071;48.868;9.996;2023-03-08T00:54:36;13.27;;;4.22;;
25079;SDS011;13071;48.868;9.996;2023-03-08T00:57:03;11.55;;;4.28;;
25079;SDS011;13071;48.868;9.996;2023-03-08T00:59:30;11.98;;;4.35;;
25079;SDS011;13071;48.868;9.996;2023-03-08T01:01:56;9.15;;;4.15;;
25079;SDS011;13071;48.868;9.996;2023-03-08T01:04:23;12.63;;;4.10;;
25079;SDS011;13071;48.868;9.996;2023-03-08T01:06:49;13.77;;;4.45;;
25079;SDS011;13071;48.868;9.996;2023-03-08T01:09:17;10.50;;;4.00;;
25079;SDS011;13071;48.868;9.996;2023-03-08T01:11:44;10.10;;;4.00;;
25079;SDS011;13071;48.868;9.996;2023-03-08T01:14:10;11.88;;;4.63;;
25079;SDS011;13071;48.868;9.996;2023-03-08T01:16:37;12.93;;;4.55;;
25079;SDS011;13071;48.868;9.996;2023-03-08T01:19:04;9.85;;;4.22;;
25079;SDS011;13071;48.868;9.996;2023-03-08T01:21:30;11.32;;;4.07;;
25079;SDS011;13071;48.868;9.996;2023-03-08T01:23:57;13.48;;;4.78;;
25079;SDS011;13071;48.868;9.996;2023-03-08T01:26:25;11.50;;;4.35;;
25079;SDS011;13071;48.868;9.996;2023-03-08T01:28:52;11.30;;;4.28;;
25079;SDS011;13071;48.868;9.996;2023-03-08T01:31:20;9.70;;;4.03;;
25079;SDS011;13071;48.868;9.996;2023-03-08T01:33:47;13.88;;;4.43;;
25079;SDS011;13071;48.868;9.996;2023-03-08T01:36:14;14.30;;;4.93;;
25079;SDS011;13071;48.868;9.996;2023-03-08T01:38:42;13.13;;;4.32;;
25079;SDS011;13071;48.868;9.996;2023-03-08T01:41:12;12.82;;;5.10;;
25079;SDS011;13071;48.868;9.996;2023-03-08T01:43:42;10.05;;;4.03;;
25079;SDS011;13071;48.868;9.996;2023-03-08T01:46:20;13.98;;;5.22;;
25079;SDS011;13071;48.868;9.996;2023-03-08T01:48:50;10.40;;;4.15;;
25079;SDS011;13071;48.868;9.996;2023-03-08T01:51:21;10.02;;;4.32;;
25079;SDS011;13071;48.868;9.996;2023-03-08T01:53:53;15.77;;;4.88;;
25079;SDS011;13071;48.868;9.996;2023-03-08T01:56:21;11.73;;;4.47;;
25079;SDS011;13071;48.868;9.996;2023-03-08T01:58:51;15.23;;;4.35;;
25079;SDS011;13071;48.868;9.996;2023-03-08T02:01:18;11.68;;;4.07;;
25079;SDS011;13071;48.868;9.996;2023-03-08T02:03:45;15.88;;;4.50;;
25079;SDS011;13071;48.868;9.996;2023-03-08T02:06:13;14.05;;;5.00;;
25079;SDS011;13071;48.868;9.996;2023-03-08T02:08:41;9.68;;;4.55;;
25079;SDS011;13071;48.868;9.996;2023-03-08T02:11:08;12.52;;;4.82;;
25079;SDS011;13071;48.868;9.996;2023-03-08T02:13:37;12.10;;;4.20;;
25079;SDS011;13071;48.868;9.996;2023-03-08T02:16:05;12.05;;;4.82;;
25079;SDS011;13071;48.868;9.996;2023-03-08T02:18:35;14.50;;;5.07;;
25079;SDS011;13071;48.868;9.996;2023-03-08T02:21:01;12.52;;;4.22;;
25079;SDS011;13071;48.868;9.996;2023-03-08T02:23:30;9.07;;;3.70;;
25079;SDS011;13071;48.868;9.996;2023-03-08T02:25:57;11.45;;;4.50;;
25079;SDS011;13071;48.868;9.996;2023-03-08T02:28:26;13.07;;;3.83;;
25079;SDS011;13071;48.868;9.996;2023-03-08T02:30:54;9.55;;;4.53;;
25079;SDS011;13071;48.868;9.996;2023-03-08T02:33:22;16.25;;;5.30;;
25079;SDS011;13071;48.868;9.996;2023-03-08T02:35:49;10.73;;;4.53;;
25079;SDS011;13071;48.868;9.996;2023-03-08T02:38:17;9.57;;;4.00;;
25079;SDS011;13071;48.868;9.996;2023-03-08T02:40:46;11.93;;;4.63;;
25079;SDS011;13071;48.868;9.996;2023-03-08T02:43:15;13.07;;;5.30;;
25079;SDS011;13071;48.868;9.996;2023-03-08T02:45:42;17.98;;;4.78;;
25079;SDS011;13071;48.868;9.996;2023-03-08T02:48:09;12.38;;;4.45;;
25079;SDS011;13071;48.868;9.996;2023-03-08T02:50:35;11.85;;;4.65;;
25079;SDS011;13071;48.868;9.996;2023-03-08T02:53:02;15.95;;;4.90;;
25079;SDS011;13071;48.868;9.996;2023-03-08T02:55:29;15.07;;;5.25;;
25079;SDS011;13071;48.868;9.996;2023-03-08T02:57:57;13.63;;;4.55;;
25079;SDS011;13071;48.868;9.996;2023-03-08T03:00:23;17.23;;;5.15;;
25079;SDS011;13071;48.868;9.996;2023-03-08T03:02:50;12.07;;;4.70;;
25079;SDS011;13071;48.868;9.996;2023-03-08T03:05:17;13.52;;;4.88;;
25079;SDS011;13071;48.868;9.996;2023-03-08T03:07:43;13.38;;;4.70;;
25079;SDS011;13071;48.868;9.996;2023-03-08T03:10:10;8.55;;;3.65;;
25079;SDS011;13071;48.868;9.996;2023-03-08T03:12:38;13.13;;;3.97;;
25079;SDS011;13071;48.868;9.996;2023-03-08T03:15:07;13.38;;;4.97;;
25079;SDS011;13071;48.868;9.996;2023-03-08T03:17:35;12.15;;;4.38;;
25079;SDS011;13071;48.868;9.996;2023-03-08T03:20:02;11.10;;;4.95;;
25079;SDS011;13071;48.868;9.996;2023-03-08T03:22:30;11.52;;;4.43;;
25079;SDS011;13071;48.868;9.996;2023-03-08T03:24:57;10.48;;;4.68;;
25079;SDS011;13071;48.868;9.996;2023-03-08T03:27:23;12.05;;;5.00;;
25079;SDS011;13071;48.868;9.996;2023-03-08T03:29:50;11.52;;;4.65;;
25079;SDS011;13071;48.868;9.996;2023-03-08T03:32:18;13.55;;;5.05;;
25079;SDS011;13071;48.868;9.996;2023-03-08T03:34:45;13.02;;;4.78;;
25079;SDS011;13071;48.868;9.996;2023-03-08T03:37:11;12.38;;;4.90;;
25079;SDS011;13071;48.868;9.996;2023-03-08T03:39:38;14.68;;;4.93;;
25079;SDS011;13071;48.868;9.996;2023-03-08T03:42:05;11.38;;;4.38;;
25079;SDS011;13071;48.868;9.996;2023-03-08T03:44:32;14.10;;;4.90;;
25079;SDS011;13071;48.868;9.996;2023-03-08T03:46:58;14.73;;;5.00;;
25079;SDS011;13071;48.868;9.996;2023-03-08T03:49:27;15.10;;;4.78;;
25079;SDS011;13071;48.868;9.996;2023-03-08T03:51:54;11.85;;;4.65;;
25079;SDS011;13071;48.868;9.996;2023-03-08T03:54:21;14.55;;;4.78;;
25079;SDS011;13071;48.868;9.996;2023-03-08T03:56:47;14.93;;;4.65;;
25079;SDS011;13071;48.868;9.996;2023-03-08T03:59:14;12.70;;;4.70;;
25079;SDS011;13071;48.868;9.996;2023-03-08T04:01:40;11.90;;;4.88;;
25079;SDS011;13071;48.868;9.996;2023-03-08T04:04:07;11.40;;;5.03;;
25079;SDS011;13071;48.868;9.996;2023-03-08T04:06:36;12.18;;;4.90;;
25079;SDS011;13071;48.868;9.996;2023-03-08T04:09:04;12.45;;;4.78;;
25079;SDS011;13071;48.868;9.996;2023-03-08T04:11:33;13.95;;;4.82;;
25079;SDS011;13071;48.868;9.996;2023-03-08T04:14:01;12.63;;;4.72;;
25079;SDS011;13071;48.868;9.996;2023-03-08T04:16:28;9.50;;;4.38;;
25079;SDS011;13071;48.868;9.996;2023-03-08T04:18:57;10.75;;;3.88;;
25079;SDS011;13071;48.868;9.996;2023-03-08T04:21:25;13.15;;;5.05;;
25079;SDS011;13071;48.868;9.996;2023-03-08T04:23:53;14.20;;;5.05;;
25079;SDS011;13071;48.868;9.996;2023-03-08T04:26:21;11.48;;;4.53;;
25079;SDS011;13071;48.868;9.996;2023-03-08T04:28:48;12.70;;;4.75;;
25079;SDS011;13071;48.868;9.996;2023-03-08T04:31:16;13.07;;;4.50;;
25079;SDS011;13071;48.868;9.996;2023-03-08T04:33:44;13.57;;;4.65;;
25079;SDS011;13071;48.868;9.996;2023-03-08T04:36:11;11.52;;;4.50;;
25079;SDS011;13071;48.868;9.996;2023-03-08T04:38:38;8.95;;;4.03;;
25079;SDS011;13071;48.868;9.996;2023-03-08T04:41:06;10.77;;;4.68;;
25079;SDS011;13071;48.868;9.996;2023-03-08T04:43:36;8.70;;;3.90;;
25079;SDS011;13071;48.868;9.996;2023-03-08T04:46:03;12.15;;;4.43;;
25079;SDS011;13071;48.868;9.996;2023-03-08T04:48:32;13.32;;;4.88;;
25079;SDS011;13071;48.868;9.996;2023-03-08T04:51:00;9.88;;;4.35;;
25079;SDS011;13071;48.868;9.996;2023-03-08T04:53:29;15.77;;;4.70;;
25079;SDS011;13071;48.868;9.996;2023-03-08T04:55:57;12.88;;;4.15;;
25079;SDS011;13071;48.868;9.996;2023-03-08T04:58:25;15.98;;;4.35;;
25079;SDS011;13071;48.868;9.996;2023-03-08T05:00:53;13.40;;;4.65;;
25079;SDS011;13071;48.868;9.996;2023-03-08T05:03:19;10.55;;;3.97;;
25079;SDS011;13071;48.868;9.996;2023-03-08T05:05:47;10.13;;;3.70;;
25079;SDS011;13071;48.868;9.996;2023-03-08T05:08:15;8.73;;;3.92;;
25079;SDS011;13071;48.868;9.996;2023-03-08T05:10:45;12.23;;;4.15;;
25079;SDS011;13071;48.868;9.996;2023-03-08T05:13:12;10.85;;;4.03;;
25079;SDS011;13071;48.868;9.996;2023-03-08T05:15:40;8.43;;;4.25;;
25079;SDS011;13071;48.868;9.996;2023-03-08T05:18:07;11.07;;;4.18;;
25079;SDS011;13071;48.868;9.996;2023-03-08T05:20:33;11.40;;;3.97;;
25079;SDS011;13071;48.868;9.996;2023-03-08T05:23:00;8.93;;;3.55;;
25079;SDS011;13071;48.868;9.996;2023-03-08T05:25:26;12.38;;;3.55;;
25079;SDS011;13071;48.868;9.996;2023-03-08T05:27:54;6.72;;;3.38;;
25079;SDS011;13071;48.868;9.996;2023-03-08T05:30:21;11.68;;;3.63;;
25079;SDS011;13071;48.868;9.996;2023-03-08T05:32:49;12.15;;;4.32;;
25079;SDS011;13071;48.868;9.996;2023-03-08T05:35:16;10.27;;;3.70;;
25079;SDS011;13071;48.868;9.996;2023-03-08T05:37:43;10.80;;;3.35;;
25079;SDS011;13071;48.868;9.996;2023-03-08T05:40:10;8.80;;;3.47;;
25079;SDS011;13071;48.868;9.996;2023-03-08T05:42:37;7.78;;;3.65;;
25079;SDS011;13071;48.868;9.996;2023-03-08T05:45:04;7.90;;;3.45;;
25079;SDS011;13071;48.868;9.996;2023-03-08T05:47:31;9.27;;;3.42;;
25079;SDS011;13071;48.868;9.996;2023-03-08T05:50:00;8.70;;;4.00;;
25079;SDS011;13071;48.868;9.996;2023-03-08T05:52:28;8.45;;;3.53;;
25079;SDS011;13071;48.868;9.996;2023-03-08T05:54:54;6.22;;;3.08;;
25079;SDS011;13071;48.868;9.996;2023-03-08T05:57:21;13.20;;;3.88;;
25079;SDS011;13071;48.868;9.996;2023-03-08T05:59:48;7.93;;;3.10;;
25079;SDS011;13071;48.868;9.996;2023-03-08T06:02:14;7.82;;;4.07;;
25079;SDS011;13071;48.868;9.996;2023-03-08T06:04:41;8.95;;;3.70;;
25079;SDS011;13071;48.868;9.996;2023-03-08T06:07:09;10.75;;;4.15;;
25079;SDS011;13071;48.868;9.996;2023-03-08T06:09:35;10.25;;;3.95;;
25079;SDS011;13071;48.868;9.996;2023-03-08T06:12:02;12.18;;;4.05;;
25079;SDS011;13071;48.868;9.996;2023-03-08T06:14:28;8.80;;;3.95;;
25079;SDS011;13071;48.868;9.996;2023-03-08T06:16:55;11.63;;;4.18;;
25079;SDS011;13071;48.868;9.996;2023-03-08T06:19:22;12.40;;;4.40;;
25079;SDS011;13071;48.868;9.996;2023-03-08T06:21:48;9.98;;;4.38;;
25079;SDS011;13071;48.868;9.996;2023-03-08T06:24:16;13.85;;;5.15;;
25079;SDS011;13071;48.868;9.996;2023-03-08T06:26:42;9.68;;;4.45;;
25079;SDS011;13071;48.868;9.996;2023-03-08T06:29:09;15.57;;;4.93;;
25079;SDS011;13071;48.868;9.996;2023-03-08T06:31:36;15.05;;;5.15;;
25079;SDS011;13071;48.868;9.996;2023-03-08T06:34:02;10.27;;;4.75;;
25079;SDS011;13071;48.868;9.996;2023-03-08T06:36:29;13.27;;;5.53;;
25079;SDS011;13071;48.868;9.996;2023-03-08T06:38:55;18.45;;;5.95;;
25079;SDS011;13071;48.868;9.996;2023-03-08T06:41:25;13.60;;;5.22;;
25079;SDS011;13071;48.868;9.996;2023-03-08T06:43:53;15.88;;;5.05;;
25079;SDS011;13071;48.868;9.996;2023-03-08T06:46:19;14.13;;;5.35;;
25079;SDS011;13071;48.868;9.996;2023-03-08T06:48:47;15.57;;;5.38;;
25079;SDS011;13071;48.868;9.996;2023-03-08T06:51:14;14.93;;;5.10;;
25079;SDS011;13071;48.868;9.996;2023-03-08T06:53:41;16.67;;;5.68;;
25079;SDS011;13071;48.868;9.996;2023-03-08T06:56:07;16.88;;;6.00;;
25079;SDS011;13071;48.868;9.996;2023-03-08T06:58:38;12.95;;;5.18;;
25079;SDS011;13071;48.868;9.996;2023-03-08T07:01:05;11.38;;;5.28;;
25079;SDS011;13071;48.868;9.996;2023-03-08T07:03:33;19.08;;;5.93;;
25079;SDS011;13071;48.868;9.996;2023-03-08T07:06:02;20.73;;;6.30;;
25079;SDS011;13071;48.868;9.996;2023-03-08T07:08:30;16.20;;;6.78;;
25079;SDS011;13071;48.868;9.996;2023-03-08T07:10:56;16.17;;;5.47;;
25079;SDS011;13071;48.868;9.996;2023-03-08T07:13:24;16.80;;;6.40;;
25079;SDS011;13071;48.868;9.996;2023-03-08T07:15:52;17.13;;;6.70;;
25079;SDS011;13071;48.868;9.996;2023-03-08T07:18:18;34.72;;;7.68;;
25079;SDS011;13071;48.868;9.996;2023-03-08T07:20:49;18.48;;;7.38;;
25079;SDS011;13071;48.868;9.996;2023-03-08T07:23:17;24.60;;;7.80;;
25079;SDS011;13071;48.868;9.996;2023-03-08T07:25:43;26.92;;;7.68;;
25079;SDS011;13071;48.868;9.996;2023-03-08T07:28:10;22.63;;;6.93;;
25079;SDS011;13071;48.868;9.996;2023-03-08T07:30:36;19.55;;;6.45;;
25079;SDS011;13071;48.868;9.996;2023-03-08T07:33:04;22.23;;;7.47;;
25079;SDS011;13071;48.868;9.996;2023-03-08T07:35:31;22.73;;;7.32;;
25079;SDS011;13071;48.868;9.996;2023-03-08T07:37:57;21.85;;;7.35;;
25079;SDS011;13071;48.868;9.996;2023-03-08T07:40:24;21.50;;;8.02;;
25079;SDS011;13071;48.868;9.996;2023-03-08T07:42:50;20.67;;;8.27;;
25079;SDS011;13071;48.868;9.996;2023-03-08T07:45:17;25.60;;;7.38;;
25079;SDS011;13071;48.868;9.996;2023-03-08T07:47:44;21.95;;;8.18;;
25079;SDS011;13071;48.868;9.996;2023-03-08T07:50:11;31.33;;;9.25;;
25079;SDS011;13071;48.868;9.996;2023-03-08T07:52:38;25.17;;;8.35;;
25079;SDS011;13071;48.868;9.996;2023-03-08T07:55:05;21.55;;;8.75;;
25079;SDS011;13071;48.868;9.996;2023-03-08T07:57:33;25.02;;;8.40;;
25079;SDS011;13071;48.868;9.996;2023-03-08T07:59:59;28.25;;;9.20;;
25079;SDS011;13071;48.868;9.996;2023-03-08T08:02:26;28.13;;;8.75;;
25079;SDS011;13071;48.868;9.996;2023-03-08T08:04:52;23.30;;;8.32;;
25079;SDS011;13071;48.868;9.996;2023-03-08T08:07:20;27.55;;;8.88;;
25079;SDS011;13071;48.868;9.996;2023-03-08T08:09:47;23.80;;;8.18;;
25079;SDS011;13071;48.868;9.996;2023-03-08T08:12:13;27.20;;;8.63;;
25079;SDS011;13071;48.868;9.996;2023-03-08T08:14:40;30.50;;;8.48;;
25079;SDS011;13071;48.868;9.996;2023-03-08T08:17:06;27.67;;;8.52;;
25079;SDS011;13071;48.868;9.996;2023-03-08T08:19:33;25.17;;;9.13;;
25079;SDS011;13071;48.868;9.996;2023-03-08T08:21:59;22.60;;;8.23;;
25079;SDS011;13071;48.868;9.996;2023-03-08T08:24:27;20.63;;;7.90;;
25079;SDS011;13071;48.868;9.996;2023-03-08T08:26:55;29.00;;;8.98;;
25079;SDS011;13071;48.868;9.996;2023-03-08T08:29:21;26.75;;;8.30;;
25079;SDS011;13071;48.868;9.996;2023-03-08T08:31:48;24.63;;;8.60;;
25079;SDS011;13071;48.868;9.996;2023-03-08T08:34:16;26.55;;;8.90;;
25079;SDS011;13071;48.868;9.996;2023-03-08T08:36:43;26.85;;;8.82;;
25079;SDS011;13071;48.868;9.996;2023-03-08T08:39:10;26.40;;;8.98;;
25079;SDS011;13071;48.868;9.996;2023-03-08T08:41:38;24.63;;;7.40;;
25079;SDS011;13071;48.868;9.996;2023-03-08T08:44:04;34.28;;;9.38;;
25079;SDS011;13071;48.868;9.996;2023-03-08T08:46:31;27.02;;;9.40;;
25079;SDS011;13071;48.868;9.996;2023-03-08T08:48:59;28.52;;;8.75;;
25079;SDS011;13071;48.868;9.996;2023-03-08T08:51:26;21.88;;;8.23;;
25079;SDS011;13071;48.868;9.996;2023-03-08T08:53:53;21.75;;;7.57;;
25079;SDS011;13071;48.868;9.996;2023-03-08T08:56:21;27.80;;;9.40;;
25079;SDS011;13071;48.868;9.996;2023-03-08T08:58:51;22.08;;;7.30;;
25079;SDS011;13071;48.868;9.996;2023-03-08T09:01:18;24.90;;;7.82;;
25079;SDS011;13071;48.868;9.996;2023-03-08T09:03:47;28.35;;;8.50;;
25079;SDS011;13071;48.868;9.996;2023-03-08T09:06:13;30.35;;;8.30;;
25079;SDS011;13071;48.868;9.996;2023-03-08T09:08:41;23.13;;;8.20;;
25079;SDS011;13071;48.868;9.996;2023-03-08T09:11:08;21.27;;;8.60;;
25079;SDS011;13071;48.868;9.996;2023-03-08T09:13:36;27.63;;;9.00;;
25079;SDS011;13071;48.868;9.996;2023-03-08T09:16:13;25.92;;;8.88;;
25079;SDS011;13071;48.868;9.996;2023-03-08T09:18:42;27.13;;;8.65;;
25079;SDS011;13071;48.868;9.996;2023-03-08T09:21:09;22.92;;;8.25;;
25079;SDS011;13071;48.868;9.996;2023-03-08T09:23:36;24.60;;;9.07;;
25079;SDS011;13071;48.868;9.996;2023-03-08T09:26:03;28.63;;;10.27;;
25079;SDS011;13071;48.868;9.996;2023-03-08T09:28:30;27.65;;;9.98;;
25079;SDS011;13071;48.868;9.996;2023-03-08T09:30:57;25.52;;;9.38;;
25079;SDS011;13071;48.868;9.996;2023-03-08T09:33:25;26.85;;;9.40;;
25079;SDS011;13071;48.868;9.996;2023-03-08T09:35:55;25.27;;;9.98;;
25079;SDS011;13071;48.868;9.996;2023-03-08T09:38:21;31.40;;;10.02;;
25079;SDS011;13071;48.868;9.996;2023-03-08T09:40:51;26.25;;;10.25;;
25079;SDS011;13071;48.868;9.996;2023-03-08T09:43:25;32.70;;;10.65;;
25079;SDS011;13071;48.868;9.996;2023-03-08T09:45:58;30.35;;;10.40;;
25079;SDS011;13071;48.868;9.996;2023-03-08T09:48:26;25.88;;;9.68;;
25079;SDS011;13071;48.868;9.996;2023-03-08T09:50:55;27.63;;;9.73;;
25079;SDS011;13071;48.868;9.996;2023-03-08T09:53:26;29.73;;;10.10;;
25079;SDS011;13071;48.868;9.996;2023-03-08T09:56:01;31.60;;;9.32;;
25079;SDS011;13071;48.868;9.996;2023-03-08T09:58:33;24.58;;;9.80;;
25079;SDS011;13071;48.868;9.996;2023-03-08T10:01:08;23.05;;;8.50;;
25079;SDS011;13071;48.868;9.996;2023-03-08T10:03:59;21.90;;;9.20;;
25079;SDS011;13071;48.868;9.996;2023-03-08T10:06:47;21.95;;;8.32;;
25079;SDS011;13071;48.868;9.996;2023-03-08T10:09:25;20.73;;;7.95;;
25079;SDS011;13071;48.868;9.996;2023-03-08T10:11:58;19.10;;;7.68;;
25079;SDS011;13071;48.868;9.996;2023-03-08T10:14:29;20.15;;;7.65;;
25079;SDS011;13071;48.868;9.996;2023-03-08T10:16:59;19.42;;;7.75;;
25079;SDS011;13071;48.868;9.996;2023-03-08T10:19:32;20.20;;;8.10;;
25079;SDS011;13071;48.868;9.996;2023-03-08T10:22:06;16.02;;;6.88;;
25079;SDS011;13071;48.868;9.996;2023-03-08T10:24:41;21.02;;;7.80;;
25079;SDS011;13071;48.868;9.996;2023-03-08T10:27:14;20.40;;;7.53;;
25079;SDS011;13071;48.868;9.996;2023-03-08T10:29:47;20.35;;;8.15;;
25079;SDS011;13071;48.868;9.996;2023-03-08T10:32:15;21.23;;;7.88;;
25079;SDS011;13071;48.868;9.996;2023-03-08T10:34:43;21.15;;;7.68;;
25079;SDS011;13071;48.868;9.996;2023-03-08T10:37:10;18.65;;;8.02;;
25079;SDS011;13071;48.868;9.996;2023-03-08T10:39:37;19.30;;;7.43;;
25079;SDS011;13071;48.868;9.996;2023-03-08T10:42:16;17.23;;;7.10;;
25079;SDS011;13071;48.868;9.996;2023-03-08T10:44:51;19.35;;;7.75;;
25079;SDS011;13071;48.868;9.996;2023-03-08T10:47:22;17.40;;;7.18;;
25079;SDS011;13071;48.868;9.996;2023-03-08T10:50:03;18.75;;;7.95;;
25079;SDS011;13071;48.868;9.996;2023-03-08T10:52:31;17.25;;;7.22;;
25079;SDS011;13071;48.868;9.996;2023-03-08T10:55:02;18.27;;;7.47;;
25079;SDS011;13071;48.868;9.996;2023-03-08T10:57:31;15.65;;;7.47;;
25079;SDS011;13071;48.868;9.996;2023-03-08T11:00:00;17.27;;;7.32;;
25079;SDS011;13071;48.868;9.996;2023-03-08T11:02:36;18.75;;;6.57;;
25079;SDS011;13071;48.868;9.996;2023-03-08T11:05:15;21.65;;;6.70;;
25079;SDS011;13071;48.868;9.996;2023-03-08T11:07:48;16.90;;;6.20;;
25079;SDS011;13071;48.868;9.996;2023-03-08T11:10:16;12.60;;;5.68;;
25079;SDS011;13071;48.868;9.996;2023-03-08T11:12:44;11.55;;;4.80;;
25079;SDS011;13071;48.868;9.996;2023-03-08T11:15:12;12.27;;;5.72;;
25079;SDS011;13071;48.868;9.996;2023-03-08T11:17:39;11.30;;;4.43;;
25079;SDS011;13071;48.868;9.996;2023-03-08T11:20:14;15.40;;;6.10;;
25079;SDS011;13071;48.868;9.996;2023-03-08T11:22:48;29.52;;;10.40;;
25079;SDS011;13071;48.868;9.996;2023-03-08T11:25:28;40.67;;;13.75;;
25079;SDS011;13071;48.868;9.996;2023-03-08T11:28:04;11.20;;;4.93;;
25079;SDS011;13071;48.868;9.996;2023-03-08T11:30:44;8.88;;;4.57;;
25079;SDS011;13071;48.868;9.996;2023-03-08T11:33:31;14.48;;;5.70;;
25079;SDS011;13071;48.868;9.996;2023-03-08T11:36:15;10.02;;;4.43;;
25079;SDS011;13071;48.868;9.996;2023-03-08T11:38:51;14.15;;;5.97;;
25079;SDS011;13071;48.868;9.996;2023-03-08T11:41:23;8.27;;;3.88;;
25079;SDS011;13071;48.868;9.996;2023-03-08T11:44:04;7.88;;;3.78;;
25079;SDS011;13071;48.868;9.996;2023-03-08T11:46:46;7.97;;;3.67;;
25079;SDS011;13071;48.868;9.996;2023-03-08T11:49:29;5.28;;;3.22;;
25079;SDS011;13071;48.868;9.996;2023-03-08T11:52:09;6.10;;;3.38;;
25079;SDS011;13071;48.868;9.996;2023-03-08T11:54:47;5.97;;;3.05;;
25079;SDS011;13071;48.868;9.996;2023-03-08T11:57:20;4.45;;;2.70;;
25079;SDS011;13071;48.868;9.996;2023-03-08T11:59:51;4.90;;;2.75;;
25079;SDS011;13071;48.868;9.996;2023-03-08T12:02:22;3.95;;;2.30;;
25079;SDS011;13071;48.868;9.996;2023-03-08T12:04:55;3.45;;;2.42;;
25079;SDS011;13071;48.868;9.996;2023-03-08T12:07:27;5.38;;;2.40;;
25079;SDS011;13071;48.868;9.996;2023-03-08T12:09:59;2.72;;;1.95;;
25079;SDS011;13071;48.868;9.996;2023-03-08T12:12:30;2.05;;;1.85;;
25079;SDS011;13071;48.868;9.996;2023-03-08T12:15:05;5.28;;;2.20;;
25079;SDS011;13071;48.868;9.996;2023-03-08T12:17:39;4.13;;;2.25;;
25079;SDS011;13071;48.868;9.996;2023-03-08T12:20:11;3.10;;;2.10;;
25079;SDS011;13071;48.868;9.996;2023-03-08T12:22:43;3.47;;;2.03;;
25079;SDS011;13071;48.868;9.996;2023-03-08T12:25:14;3.45;;;1.70;;
25079;SDS011;13071;48.868;9.996;2023-03-08T12:27:48;1.83;;;1.73;;
25079;SDS011;13071;48.868;9.996;2023-03-08T12:30:22;2.28;;;1.67;;
25079;SDS011;13071;48.868;9.996;2023-03-08T12:32:59;2.78;;;2.10;;
25079;SDS011;13071;48.868;9.996;2023-03-08T12:35:28;2.40;;;1.70;;
25079;SDS011;13071;48.868;9.996;2023-03-08T12:37:59;1.33;;;1.23;;
25079;SDS011;13071;48.868;9.996;2023-03-08T12:40:34;2.47;;;1.35;;
25079;SDS011;13071;48.868;9.996;2023-03-08T12:43:04;1.77;;;1.60;;
25079;SDS011;13071;48.868;9.996;2023-03-08T12:45:35;2.33;;;1.50;;
25079;SDS011;13071;48.868;9.996;2023-03-08T12:50:59;2.30;;;1.63;;
25079;SDS011;13071;48.868;9.996;2023-03-08T12:53:35;3.53;;;1.48;;
25079;SDS011;13071;48.868;9.996;2023-03-08T12:56:05;1.17;;;1.15;;
25079;SDS011;13071;48.868;9.996;2023-03-08T12:58:46;2.00;;;1.73;;
25079;SDS011;13071;48.868;9.996;2023-03-08T13:01:23;1.85;;;1.25;;
25079;SDS011;13071;48.868;9.996;2023-03-08T13:03:54;1.73;;;1.02;;
25079;SDS011;13071;48.868;9.996;2023-03-08T13:09:24;0.82;;;0.82;;
25079;SDS011;13071;48.868;9.996;2023-03-08T13:11:55;1.00;;;1.00;;
25079;SDS011;13071;48.868;9.996;2023-03-08T13:14:27;0.93;;;0.93;;
25079;SDS011;13071;48.868;9.996;2023-03-08T13:20:00;0.70;;;0.70;;
25079;SDS011;13071;48.868;9.996;2023-03-08T13:22:33;1.15;;;0.70;;
25079;SDS011;13071;48.868;9.996;2023-03-08T13:25:08;0.73;;;0.63;;
25079;SDS011;13071;48.868;9.996;2023-03-08T13:27:47;1.15;;;0.82;;
25079;SDS011;13071;48.868;9.996;2023-03-08T13:30:22;0.60;;;0.60;;
25079;SDS011;13071;48.868;9.996;2023-03-08T13:32:50;0.70;;;0.70;;
25079;SDS011;13071;48.868;9.996;2023-03-08T13:35:17;0.60;;;0.60;;
25079;SDS011;13071;48.868;9.996;2023-03-08T13:37:50;1.10;;;0.60;;
25079;SDS011;13071;48.868;9.996;2023-03-08T13:40:19;0.80;;;0.80;;
25079;SDS011;13071;48.868;9.996;2023-03-08T13:42:51;1.38;;;1.08;;
25079;SDS011;13071;48.868;9.996;2023-03-08T13:45:19;0.50;;;0.50;;
25079;SDS011;13071;48.868;9.996;2023-03-08T13:47:46;0.63;;;0.63;;
25079;SDS011;13071;48.868;9.996;2023-03-08T13:50:16;0.82;;;0.80;;
25079;SDS011;13071;48.868;9.996;2023-03-08T13:52:46;0.80;;;0.80;;
25079;SDS011;13071;48.868;9.996;2023-03-08T13:55:15;0.75;;;0.75;;
25079;SDS011;13071;48.868;9.996;2023-03-08T13:57:48;0.60;;;0.60;;
25079;SDS011;13071;48.868;9.996;2023-03-08T14:00:25;0.65;;;0.60;;
25079;SDS011;13071;48.868;9.996;2023-03-08T14:02:54;0.98;;;0.75;;
25079;SDS011;13071;48.868;9.996;2023-03-08T14:05:23;0.52;;;0.52;;
25079;SDS011;13071;48.868;9.996;2023-03-08T14:07:55;1.10;;;1.00;;
25079;SDS011;13071;48.868;9.996;2023-03-08T14:10:23;2.35;;;1.00;;
25079;SDS011;13071;48.868;9.996;2023-03-08T14:12:57;0.98;;;0.88;;
25079;SDS011;13071;48.868;9.996;2023-03-08T14:15:24;2.35;;;0.90;;
25079;SDS011;13071;48.868;9.996;2023-03-08T14:17:50;1.13;;;0.90;;
25079;SDS011;13071;48.868;9.996;2023-03-08T14:20:18;2.30;;;1.00;;
25079;SDS011;13071;48.868;9.996;2023-03-08T14:22:47;2.17;;;1.17;;
25079;SDS011;13071;48.868;9.996;2023-03-08T14:25:25;1.13;;;1.02;;
25079;SDS011;13071;48.868;9.996;2023-03-08T14:27:53;1.10;;;1.00;;
25079;SDS011;13071;48.868;9.996;2023-03-08T14:30:23;2.67;;;1.02;;
25079;SDS011;13071;48.868;9.996;2023-03-08T14:32:55;1.67;;;0.90;;
25079;SDS011;13071;48.868;9.996;2023-03-08T14:35:24;4.68;;;1.52;;
25079;SDS011;13071;48.868;9.996;2023-03-08T14:37:52;4.47;;;1.23;;
25079;SDS011;13071;48.868;9.996;2023-03-08T14:40:24;1.92;;;1.15;;
25079;SDS011;13071;48.868;9.996;2023-03-08T14:42:53;0.73;;;0.73;;
25079;SDS011;13071;48.868;9.996;2023-03-08T14:45:23;0.57;;;0.57;;
25079;SDS011;13071;48.868;9.996;2023-03-08T14:47:52;1.65;;;0.60;;
25079;SDS011;13071;48.868;9.996;2023-03-08T14:50:22;0.57;;;0.50;;
25079;SDS011;13071;48.868;9.996;2023-03-08T14:52:51;0.75;;;0.75;;
25079;SDS011;13071;48.868;9.996;2023-03-08T14:55:20;0.80;;;0.80;;
25079;SDS011;13071;48.868;9.996;2023-03-08T14:57:50;0.70;;;0.70;;